sensor_id;sensor_type;location;lat;lon;timestamp;P1;durP1;ratioP1;P2;durP2;ratioP2
2872;SDS011;1444;49.166;7.312;2023-06-14T00:00:35;34.63;;;13.13;;
2872;SDS011;1444;49.166;7.312;2023-06-14T00:03:04;22.67;;;12.13;;
2872;SDS011;1444;49.166;7.312;2023-06-14T00:05:31;45.93;;;16.33;;
2872;SDS011;1444;49.166;7.312;2023-06-14T00:07:58;31.57;;;13.63;;
2872;SDS011;1444;49.166;7.312;2023-06-14T00:10:25;45.20;;;16.53;;
2872;SDS011;1444;49.166;7.312;2023-06-14T00:12:56;24.67;;;12.93;;
2872;SDS011;1444;49.166;7.312;2023-06-14T00:15:26;42.37;;;16.40;;
2872;SDS011;1444;49.166;7.312;2023-06-14T00:17:53;32.67;;;13.67;;
2872;SDS011;1444;49.166;7.312;2023-06-14T00:20:21;40.43;;;11.53;;
2872;SDS011;1444;49.166;7.312;2023-06-14T00:22:48;29.70;;;13.63;;
2872;SDS011;1444;49.166;7.312;2023-06-14T00:25:15;23.90;;;12.03;;
2872;SDS011;1444;49.166;7.312;2023-06-14T00:27:42;34.20;;;12.87;;
2872;SDS011;1444;49.166;7.312;2023-06-14T00:30:09;20.07;;;11.37;;
2872;SDS011;1444;49.166;7.312;2023-06-14T00:32:38;38.83;;;15.90;;
2872;SDS011;1444;49.166;7.312;2023-06-14T00:35:05;25.83;;;11.50;;
2872;SDS011;1444;49.166;7.312;2023-06-14T00:37:33;42.10;;;16.10;;
2872;SDS011;1444;49.166;7.312;2023-06-14T00:40:00;25.47;;;12.47;;
2872;SDS011;1444;49.166;7.312;2023-06-14T00:42:27;27.90;;;12.00;;
2872;SDS011;1444;49.166;7.312;2023-06-14T00:44:54;48.77;;;20.00;;
2872;SDS011;1444;49.166;7.312;2023-06-14T00:47:21;26.83;;;13.23;;
2872;SDS011;1444;49.166;7.312;2023-06-14T00:49:50;34.73;;;11.30;;
2872;SDS011;1444;49.166;7.312;2023-06-14T00:52:18;28.40;;;13.37;;
2872;SDS011;1444;49.166;7.312;2023-06-14T00:54:45;39.43;;;15.30;;
2872;SDS011;1444;49.166;7.312;2023-06-14T00:57:12;25.03;;;11.40;;
2872;SDS011;1444;49.166;7.312;2023-06-14T00:59:41;29.93;;;14.30;;
2872;SDS011;1444;49.166;7.312;2023-06-14T01:02:09;23.70;;;11.17;;
2872;SDS011;1444;49.166;7.312;2023-06-14T01:04:36;42.50;;;17.30;;
2872;SDS011;1444;49.166;7.312;2023-06-14T01:07:07;17.77;;;10.90;;
2872;SDS011;1444;49.166;7.312;2023-06-14T01:09:45;31.37;;;12.60;;
2872;SDS011;1444;49.166;7.312;2023-06-14T01:12:15;32.27;;;13.33;;
2872;SDS011;1444;49.166;7.312;2023-06-14T01:14:50;20.90;;;11.93;;
2872;SDS011;1444;49.166;7.312;2023-06-14T01:17:20;29.80;;;13.20;;
2872;SDS011;1444;49.166;7.312;2023-06-14T01:19:48;27.30;;;12.73;;
2872;SDS011;1444;49.166;7.312;2023-06-14T01:22:24;44.37;;;14.70;;
2872;SDS011;1444;49.166;7.312;2023-06-14T01:24:53;25.43;;;13.33;;
2872;SDS011;1444;49.166;7.312;2023-06-14T01:27:21;22.50;;;11.60;;
2872;SDS011;1444;49.166;7.312;2023-06-14T01:29:49;34.87;;;15.50;;
2872;SDS011;1444;49.166;7.312;2023-06-14T01:32:19;26.73;;;12.97;;
2872;SDS011;1444;49.166;7.312;2023-06-14T01:34:45;32.67;;;13.33;;
2872;SDS011;1444;49.166;7.312;2023-06-14T01:37:12;24.10;;;12.80;;
2872;SDS011;1444;49.166;7.312;2023-06-14T01:39:40;36.77;;;14.80;;
2872;SDS011;1444;49.166;7.312;2023-06-14T01:42:11;34.47;;;14.87;;
2872;SDS011;1444;49.166;7.312;2023-06-14T01:44:43;34.10;;;13.90;;
2872;SDS011;1444;49.166;7.312;2023-06-14T01:47:11;28.47;;;13.53;;
2872;SDS011;1444;49.166;7.312;2023-06-14T01:49:38;34.03;;;13.50;;
2872;SDS011;1444;49.166;7.312;2023-06-14T01:52:06;27.23;;;10.20;;
2872;SDS011;1444;49.166;7.312;2023-06-14T01:54:34;35.80;;;14.87;;
2872;SDS011;1444;49.166;7.312;2023-06-14T01:57:03;27.90;;;13.43;;
2872;SDS011;1444;49.166;7.312;2023-06-14T01:59:33;39.67;;;15.27;;
2872;SDS011;1444;49.166;7.312;2023-06-14T02:02:02;25.03;;;11.60;;
2872;SDS011;1444;49.166;7.312;2023-06-14T02:04:29;51.70;;;17.90;;
2872;SDS011;1444;49.166;7.312;2023-06-14T02:06:56;32.63;;;14.83;;
2872;SDS011;1444;49.166;7.312;2023-06-14T02:09:23;30.03;;;13.63;;
2872;SDS011;1444;49.166;7.312;2023-06-14T02:11:50;27.23;;;13.07;;
2872;SDS011;1444;49.166;7.312;2023-06-14T02:14:17;27.73;;;13.20;;
2872;SDS011;1444;49.166;7.312;2023-06-14T02:16:45;31.33;;;13.97;;
2872;SDS011;1444;49.166;7.312;2023-06-14T02:19:13;26.67;;;12.20;;
2872;SDS011;1444;49.166;7.312;2023-06-14T02:21:40;26.30;;;12.37;;
2872;SDS011;1444;49.166;7.312;2023-06-14T02:24:07;34.20;;;14.50;;
2872;SDS011;1444;49.166;7.312;2023-06-14T02:26:35;39.53;;;15.30;;
2872;SDS011;1444;49.166;7.312;2023-06-14T02:29:02;21.27;;;10.73;;
2872;SDS011;1444;49.166;7.312;2023-06-14T02:31:30;69.23;;;19.50;;
2872;SDS011;1444;49.166;7.312;2023-06-14T02:33:58;28.50;;;13.10;;
2872;SDS011;1444;49.166;7.312;2023-06-14T02:36:25;48.70;;;17.67;;
2872;SDS011;1444;49.166;7.312;2023-06-14T02:38:52;24.37;;;10.50;;
2872;SDS011;1444;49.166;7.312;2023-06-14T02:41:20;29.57;;;13.80;;
2872;SDS011;1444;49.166;7.312;2023-06-14T02:43:47;26.10;;;11.90;;
2872;SDS011;1444;49.166;7.312;2023-06-14T02:46:14;22.03;;;10.77;;
2872;SDS011;1444;49.166;7.312;2023-06-14T02:48:41;20.40;;;11.00;;
2872;SDS011;1444;49.166;7.312;2023-06-14T02:51:09;25.23;;;12.10;;
2872;SDS011;1444;49.166;7.312;2023-06-14T02:53:35;33.73;;;13.70;;
2872;SDS011;1444;49.166;7.312;2023-06-14T02:56:02;22.50;;;11.50;;
2872;SDS011;1444;49.166;7.312;2023-06-14T02:58:30;37.07;;;15.40;;
2872;SDS011;1444;49.166;7.312;2023-06-14T03:00:58;33.23;;;11.40;;
2872;SDS011;1444;49.166;7.312;2023-06-14T03:03:27;45.83;;;18.13;;
2872;SDS011;1444;49.166;7.312;2023-06-14T03:05:54;26.43;;;12.63;;
2872;SDS011;1444;49.166;7.312;2023-06-14T03:08:23;27.10;;;12.20;;
2872;SDS011;1444;49.166;7.312;2023-06-14T03:10:52;28.67;;;12.43;;
2872;SDS011;1444;49.166;7.312;2023-06-14T03:13:21;24.03;;;12.33;;
2872;SDS011;1444;49.166;7.312;2023-06-14T03:15:48;20.60;;;10.43;;
2872;SDS011;1444;49.166;7.312;2023-06-14T03:18:15;31.67;;;13.80;;
2872;SDS011;1444;49.166;7.312;2023-06-14T03:20:44;24.43;;;12.63;;
2872;SDS011;1444;49.166;7.312;2023-06-14T03:23:11;24.20;;;11.37;;
2872;SDS011;1444;49.166;7.312;2023-06-14T03:25:40;29.30;;;13.50;;
2872;SDS011;1444;49.166;7.312;2023-06-14T03:28:07;22.40;;;12.30;;
2872;SDS011;1444;49.166;7.312;2023-06-14T03:30:34;49.40;;;15.67;;
2872;SDS011;1444;49.166;7.312;2023-06-14T03:33:02;17.07;;;10.70;;
2872;SDS011;1444;49.166;7.312;2023-06-14T03:35:29;44.67;;;17.43;;
2872;SDS011;1444;49.166;7.312;2023-06-14T03:37:56;22.33;;;12.30;;
2872;SDS011;1444;49.166;7.312;2023-06-14T03:40:23;32.23;;;13.40;;
2872;SDS011;1444;49.166;7.312;2023-06-14T03:42:53;28.20;;;11.90;;
2872;SDS011;1444;49.166;7.312;2023-06-14T03:45:21;34.47;;;14.93;;
2872;SDS011;1444;49.166;7.312;2023-06-14T03:47:48;22.20;;;12.00;;
2872;SDS011;1444;49.166;7.312;2023-06-14T03:50:15;25.33;;;12.57;;
2872;SDS011;1444;49.166;7.312;2023-06-14T03:52:43;35.00;;;15.63;;
2872;SDS011;1444;49.166;7.312;2023-06-14T03:55:10;21.70;;;12.20;;
2872;SDS011;1444;49.166;7.312;2023-06-14T03:57:38;24.60;;;11.87;;
2872;SDS011;1444;49.166;7.312;2023-06-14T04:00:07;18.03;;;10.37;;
2872;SDS011;1444;49.166;7.312;2023-06-14T04:02:36;28.40;;;14.27;;
2872;SDS011;1444;49.166;7.312;2023-06-14T04:05:03;30.10;;;11.73;;
2872;SDS011;1444;49.166;7.312;2023-06-14T04:07:33;32.77;;;15.13;;
2872;SDS011;1444;49.166;7.312;2023-06-14T04:10:06;21.67;;;12.17;;
2872;SDS011;1444;49.166;7.312;2023-06-14T04:12:33;40.33;;;19.30;;
2872;SDS011;1444;49.166;7.312;2023-06-14T04:15:00;21.50;;;11.67;;
2872;SDS011;1444;49.166;7.312;2023-06-14T04:17:29;39.70;;;16.63;;
2872;SDS011;1444;49.166;7.312;2023-06-14T04:19:57;21.83;;;11.03;;
2872;SDS011;1444;49.166;7.312;2023-06-14T04:22:24;34.23;;;16.43;;
2872;SDS011;1444;49.166;7.312;2023-06-14T04:24:53;24.73;;;12.50;;
2872;SDS011;1444;49.166;7.312;2023-06-14T04:27:20;29.77;;;13.63;;
2872;SDS011;1444;49.166;7.312;2023-06-14T04:29:50;19.20;;;11.60;;
2872;SDS011;1444;49.166;7.312;2023-06-14T04:32:21;32.80;;;12.77;;
2872;SDS011;1444;49.166;7.312;2023-06-14T04:34:52;23.13;;;12.97;;
2872;SDS011;1444;49.166;7.312;2023-06-14T04:37:20;21.97;;;11.83;;
2872;SDS011;1444;49.166;7.312;2023-06-14T04:39:47;22.30;;;10.60;;
2872;SDS011;1444;49.166;7.312;2023-06-14T04:42:14;23.23;;;13.17;;
2872;SDS011;1444;49.166;7.312;2023-06-14T04:44:41;25.53;;;13.13;;
2872;SDS011;1444;49.166;7.312;2023-06-14T04:47:08;26.70;;;11.80;;
2872;SDS011;1444;49.166;7.312;2023-06-14T04:49:36;28.17;;;14.60;;
2872;SDS011;1444;49.166;7.312;2023-06-14T04:52:05;23.97;;;12.70;;
2872;SDS011;1444;49.166;7.312;2023-06-14T04:54:35;34.60;;;16.70;;
2872;SDS011;1444;49.166;7.312;2023-06-14T04:57:03;19.30;;;11.63;;
2872;SDS011;1444;49.166;7.312;2023-06-14T04:59:30;48.00;;;17.10;;
2872;SDS011;1444;49.166;7.312;2023-06-14T05:01:58;32.13;;;14.30;;
2872;SDS011;1444;49.166;7.312;2023-06-14T05:04:25;44.73;;;20.53;;
2872;SDS011;1444;49.166;7.312;2023-06-14T05:06:54;20.20;;;14.00;;
2872;SDS011;1444;49.166;7.312;2023-06-14T05:09:24;33.57;;;17.77;;
2872;SDS011;1444;49.166;7.312;2023-06-14T05:11:51;25.80;;;15.50;;
2872;SDS011;1444;49.166;7.312;2023-06-14T05:14:18;24.57;;;15.87;;
2872;SDS011;1444;49.166;7.312;2023-06-14T05:16:45;25.37;;;15.20;;
2872;SDS011;1444;49.166;7.312;2023-06-14T05:19:13;36.43;;;17.10;;
2872;SDS011;1444;49.166;7.312;2023-06-14T05:21:42;27.97;;;14.90;;
2872;SDS011;1444;49.166;7.312;2023-06-14T05:24:09;22.23;;;14.27;;
2872;SDS011;1444;49.166;7.312;2023-06-14T05:26:38;35.70;;;19.03;;
2872;SDS011;1444;49.166;7.312;2023-06-14T05:29:04;26.10;;;13.97;;
2872;SDS011;1444;49.166;7.312;2023-06-14T05:31:31;36.07;;;19.17;;
2872;SDS011;1444;49.166;7.312;2023-06-14T05:33:58;32.43;;;14.67;;
2872;SDS011;1444;49.166;7.312;2023-06-14T05:36:25;42.87;;;18.73;;
2872;SDS011;1444;49.166;7.312;2023-06-14T05:38:53;24.70;;;15.50;;
2872;SDS011;1444;49.166;7.312;2023-06-14T05:41:22;43.07;;;20.50;;
2872;SDS011;1444;49.166;7.312;2023-06-14T05:43:51;28.50;;;13.17;;
2872;SDS011;1444;49.166;7.312;2023-06-14T05:46:18;30.13;;;17.10;;
2872;SDS011;1444;49.166;7.312;2023-06-14T05:48:47;24.93;;;14.80;;
2872;SDS011;1444;49.166;7.312;2023-06-14T05:51:14;30.53;;;14.97;;
2872;SDS011;1444;49.166;7.312;2023-06-14T05:53:44;30.20;;;16.20;;
2872;SDS011;1444;49.166;7.312;2023-06-14T05:56:11;23.80;;;13.90;;
2872;SDS011;1444;49.166;7.312;2023-06-14T05:58:38;24.60;;;14.80;;
2872;SDS011;1444;49.166;7.312;2023-06-14T06:01:06;19.90;;;12.40;;
2872;SDS011;1444;49.166;7.312;2023-06-14T06:03:33;32.03;;;15.13;;
2872;SDS011;1444;49.166;7.312;2023-06-14T06:06:00;24.80;;;12.40;;
2872;SDS011;1444;49.166;7.312;2023-06-14T06:08:28;35.57;;;17.93;;
2872;SDS011;1444;49.166;7.312;2023-06-14T06:10:55;25.57;;;13.20;;
2872;SDS011;1444;49.166;7.312;2023-06-14T06:13:22;32.27;;;17.10;;
2872;SDS011;1444;49.166;7.312;2023-06-14T06:15:49;23.80;;;11.77;;
2872;SDS011;1444;49.166;7.312;2023-06-14T06:18:17;24.07;;;12.60;;
2872;SDS011;1444;49.166;7.312;2023-06-14T06:20:44;18.50;;;12.80;;
2872;SDS011;1444;49.166;7.312;2023-06-14T06:23:12;24.83;;;13.73;;
2872;SDS011;1444;49.166;7.312;2023-06-14T06:25:39;20.47;;;11.63;;
2872;SDS011;1444;49.166;7.312;2023-06-14T06:28:06;23.40;;;12.40;;
2872;SDS011;1444;49.166;7.312;2023-06-14T06:30:33;28.33;;;16.10;;
2872;SDS011;1444;49.166;7.312;2023-06-14T06:33:01;33.00;;;12.70;;
2872;SDS011;1444;49.166;7.312;2023-06-14T06:35:29;33.47;;;17.80;;
2872;SDS011;1444;49.166;7.312;2023-06-14T06:37:58;20.23;;;11.93;;
2872;SDS011;1444;49.166;7.312;2023-06-14T06:40:25;33.37;;;13.10;;
2872;SDS011;1444;49.166;7.312;2023-06-14T06:42:52;17.70;;;11.63;;
2872;SDS011;1444;49.166;7.312;2023-06-14T06:45:21;24.80;;;14.00;;
2872;SDS011;1444;49.166;7.312;2023-06-14T06:47:50;21.13;;;12.43;;
2872;SDS011;1444;49.166;7.312;2023-06-14T06:50:17;17.10;;;12.43;;
2872;SDS011;1444;49.166;7.312;2023-06-14T06:52:46;17.63;;;11.20;;
2872;SDS011;1444;49.166;7.312;2023-06-14T06:55:13;24.33;;;11.53;;
2872;SDS011;1444;49.166;7.312;2023-06-14T06:57:39;24.83;;;14.10;;
2872;SDS011;1444;49.166;7.312;2023-06-14T07:00:07;18.53;;;11.17;;
2872;SDS011;1444;49.166;7.312;2023-06-14T07:02:35;22.53;;;13.13;;
2872;SDS011;1444;49.166;7.312;2023-06-14T07:05:02;15.13;;;10.60;;
2872;SDS011;1444;49.166;7.312;2023-06-14T07:07:29;24.10;;;14.73;;
2872;SDS011;1444;49.166;7.312;2023-06-14T07:09:58;19.33;;;9.80;;
2872;SDS011;1444;49.166;7.312;2023-06-14T07:12:25;21.10;;;13.57;;
2872;SDS011;1444;49.166;7.312;2023-06-14T07:14:52;17.63;;;12.27;;
2872;SDS011;1444;49.166;7.312;2023-06-14T07:17:19;20.97;;;12.20;;
2872;SDS011;1444;49.166;7.312;2023-06-14T07:19:46;19.37;;;12.40;;
2872;SDS011;1444;49.166;7.312;2023-06-14T07:22:13;21.23;;;12.03;;
2872;SDS011;1444;49.166;7.312;2023-06-14T07:24:39;22.80;;;11.67;;
2872;SDS011;1444;49.166;7.312;2023-06-14T07:27:08;16.30;;;11.40;;
2872;SDS011;1444;49.166;7.312;2023-06-14T07:29:35;30.93;;;16.97;;
2872;SDS011;1444;49.166;7.312;2023-06-14T07:32:03;16.73;;;10.07;;
2872;SDS011;1444;49.166;7.312;2023-06-14T07:34:30;24.20;;;14.43;;
2872;SDS011;1444;49.166;7.312;2023-06-14T07:36:57;41.37;;;13.43;;
2872;SDS011;1444;49.166;7.312;2023-06-14T07:39:24;33.00;;;14.33;;
2872;SDS011;1444;49.166;7.312;2023-06-14T07:41:51;28.13;;;13.00;;
2872;SDS011;1444;49.166;7.312;2023-06-14T07:44:19;17.77;;;11.47;;
2872;SDS011;1444;49.166;7.312;2023-06-14T07:46:46;19.03;;;11.33;;
2872;SDS011;1444;49.166;7.312;2023-06-14T07:49:14;15.03;;;11.17;;
2872;SDS011;1444;49.166;7.312;2023-06-14T07:51:41;25.20;;;12.17;;
2872;SDS011;1444;49.166;7.312;2023-06-14T07:54:09;15.23;;;11.40;;
2872;SDS011;1444;49.166;7.312;2023-06-14T07:56:36;25.80;;;15.33;;
2872;SDS011;1444;49.166;7.312;2023-06-14T07:59:03;15.90;;;8.70;;
2872;SDS011;1444;49.166;7.312;2023-06-14T08:01:32;25.60;;;15.53;;
2872;SDS011;1444;49.166;7.312;2023-06-14T08:03:59;11.00;;;9.07;;
2872;SDS011;1444;49.166;7.312;2023-06-14T08:06:26;20.60;;;13.73;;
2872;SDS011;1444;49.166;7.312;2023-06-14T08:08:52;12.80;;;10.77;;
2872;SDS011;1444;49.166;7.312;2023-06-14T08:11:19;17.27;;;11.67;;
2872;SDS011;1444;49.166;7.312;2023-06-14T08:13:49;22.97;;;10.43;;
2872;SDS011;1444;49.166;7.312;2023-06-14T08:16:15;14.43;;;10.80;;
2872;SDS011;1444;49.166;7.312;2023-06-14T08:18:44;15.03;;;10.90;;
2872;SDS011;1444;49.166;7.312;2023-06-14T08:21:11;15.73;;;10.23;;
2872;SDS011;1444;49.166;7.312;2023-06-14T08:23:39;15.43;;;11.83;;
2872;SDS011;1444;49.166;7.312;2023-06-14T08:26:07;16.77;;;10.57;;
2872;SDS011;1444;49.166;7.312;2023-06-14T08:28:34;25.03;;;13.23;;
2872;SDS011;1444;49.166;7.312;2023-06-14T08:31:01;15.23;;;10.10;;
2872;SDS011;1444;49.166;7.312;2023-06-14T08:33:28;19.30;;;14.30;;
2872;SDS011;1444;49.166;7.312;2023-06-14T08:35:59;16.30;;;9.30;;
2872;SDS011;1444;49.166;7.312;2023-06-14T08:38:26;19.30;;;12.53;;
2872;SDS011;1444;49.166;7.312;2023-06-14T08:40:52;14.60;;;10.17;;
2872;SDS011;1444;49.166;7.312;2023-06-14T08:43:23;15.00;;;10.10;;
2872;SDS011;1444;49.166;7.312;2023-06-14T08:45:51;10.03;;;8.87;;
2872;SDS011;1444;49.166;7.312;2023-06-14T08:48:24;15.47;;;11.07;;
2872;SDS011;1444;49.166;7.312;2023-06-14T08:50:53;10.53;;;9.47;;
2872;SDS011;1444;49.166;7.312;2023-06-14T08:53:28;12.00;;;10.80;;
2872;SDS011;1444;49.166;7.312;2023-06-14T08:55:58;21.67;;;10.33;;
2872;SDS011;1444;49.166;7.312;2023-06-14T08:58:26;14.60;;;11.30;;
2872;SDS011;1444;49.166;7.312;2023-06-14T09:00:54;14.63;;;11.13;;
2872;SDS011;1444;49.166;7.312;2023-06-14T09:03:22;15.63;;;10.07;;
2872;SDS011;1444;49.166;7.312;2023-06-14T09:05:55;14.50;;;10.13;;
2872;SDS011;1444;49.166;7.312;2023-06-14T09:08:24;9.20;;;8.20;;
2872;SDS011;1444;49.166;7.312;2023-06-14T09:10:53;12.07;;;10.00;;
2872;SDS011;1444;49.166;7.312;2023-06-14T09:13:21;16.80;;;10.90;;
2872;SDS011;1444;49.166;7.312;2023-06-14T09:15:48;10.73;;;7.70;;
2872;SDS011;1444;49.166;7.312;2023-06-14T09:18:15;11.23;;;9.50;;
2872;SDS011;1444;49.166;7.312;2023-06-14T09:20:42;19.33;;;10.80;;
2872;SDS011;1444;49.166;7.312;2023-06-14T09:23:12;22.43;;;8.97;;
2872;SDS011;1444;49.166;7.312;2023-06-14T09:25:43;10.40;;;8.37;;
2872;SDS011;1444;49.166;7.312;2023-06-14T09:28:13;10.30;;;9.27;;
2872;SDS011;1444;49.166;7.312;2023-06-14T09:30:40;24.57;;;9.10;;
2872;SDS011;1444;49.166;7.312;2023-06-14T09:33:07;8.00;;;6.90;;
2872;SDS011;1444;49.166;7.312;2023-06-14T09:35:34;13.57;;;10.17;;
2872;SDS011;1444;49.166;7.312;2023-06-14T09:38:01;16.67;;;9.03;;
2872;SDS011;1444;49.166;7.312;2023-06-14T09:40:28;17.97;;;13.17;;
2872;SDS011;1444;49.166;7.312;2023-06-14T09:42:59;10.30;;;8.03;;
2872;SDS011;1444;49.166;7.312;2023-06-14T09:45:28;19.20;;;10.13;;
2872;SDS011;1444;49.166;7.312;2023-06-14T09:47:56;10.97;;;9.60;;
2872;SDS011;1444;49.166;7.312;2023-06-14T09:50:24;13.23;;;8.43;;
2872;SDS011;1444;49.166;7.312;2023-06-14T09:52:52;16.13;;;9.17;;
2872;SDS011;1444;49.166;7.312;2023-06-14T09:55:21;14.13;;;9.70;;
2872;SDS011;1444;49.166;7.312;2023-06-14T09:57:49;24.83;;;8.70;;
2872;SDS011;1444;49.166;7.312;2023-06-14T10:00:17;12.40;;;9.57;;
2872;SDS011;1444;49.166;7.312;2023-06-14T10:02:49;15.70;;;9.90;;
2872;SDS011;1444;49.166;7.312;2023-06-14T10:05:22;9.00;;;8.10;;
2872;SDS011;1444;49.166;7.312;2023-06-14T10:07:52;12.07;;;9.43;;
2872;SDS011;1444;49.166;7.312;2023-06-14T10:10:21;24.30;;;8.70;;
2872;SDS011;1444;49.166;7.312;2023-06-14T10:12:48;14.23;;;8.43;;
2872;SDS011;1444;49.166;7.312;2023-06-14T10:15:17;11.13;;;9.23;;
2872;SDS011;1444;49.166;7.312;2023-06-14T10:17:50;12.53;;;7.80;;
2872;SDS011;1444;49.166;7.312;2023-06-14T10:20:25;8.63;;;7.80;;
2872;SDS011;1444;49.166;7.312;2023-06-14T10:22:56;13.87;;;8.80;;
2872;SDS011;1444;49.166;7.312;2023-06-14T10:25:28;15.23;;;9.30;;
2872;SDS011;1444;49.166;7.312;2023-06-14T10:31:03;11.07;;;8.77;;
2872;SDS011;1444;49.166;7.312;2023-06-14T10:33:34;15.73;;;9.83;;
2872;SDS011;1444;49.166;7.312;2023-06-14T10:36:11;8.70;;;7.50;;
2872;SDS011;1444;49.166;7.312;2023-06-14T10:38:59;9.87;;;7.07;;
2872;SDS011;1444;49.166;7.312;2023-06-14T10:41:28;11.10;;;9.33;;
2872;SDS011;1444;49.166;7.312;2023-06-14T10:47:04;8.60;;;7.43;;
2872;SDS011;1444;49.166;7.312;2023-06-14T10:49:39;15.80;;;9.20;;
2872;SDS011;1444;49.166;7.312;2023-06-14T10:52:08;11.13;;;7.53;;
2872;SDS011;1444;49.166;7.312;2023-06-14T10:54:56;13.13;;;9.27;;
2872;SDS011;1444;49.166;7.312;2023-06-14T10:57:30;12.43;;;9.53;;
2872;SDS011;1444;49.166;7.312;2023-06-14T10:59:58;12.10;;;7.73;;
2872;SDS011;1444;49.166;7.312;2023-06-14T11:02:39;15.57;;;9.40;;
2872;SDS011;1444;49.166;7.312;2023-06-14T11:05:28;10.77;;;8.90;;
2872;SDS011;1444;49.166;7.312;2023-06-14T11:07:58;11.33;;;8.23;;
2872;SDS011;1444;49.166;7.312;2023-06-14T11:10:54;8.07;;;7.00;;
2872;SDS011;1444;49.166;7.312;2023-06-14T11:13:26;13.43;;;7.93;;
2872;SDS011;1444;49.166;7.312;2023-06-14T11:15:53;8.73;;;7.83;;
2872;SDS011;1444;49.166;7.312;2023-06-14T11:18:22;13.20;;;9.47;;
2872;SDS011;1444;49.166;7.312;2023-06-14T11:20:51;18.73;;;8.27;;
2872;SDS011;1444;49.166;7.312;2023-06-14T11:23:18;15.03;;;9.83;;
2872;SDS011;1444;49.166;7.312;2023-06-14T11:25:49;11.90;;;9.13;;
2872;SDS011;1444;49.166;7.312;2023-06-14T11:28:16;14.20;;;6.37;;
2872;SDS011;1444;49.166;7.312;2023-06-14T11:30:44;15.57;;;9.70;;
2872;SDS011;1444;49.166;7.312;2023-06-14T11:33:16;14.83;;;8.47;;
2872;SDS011;1444;49.166;7.312;2023-06-14T11:35:44;14.30;;;8.70;;
2872;SDS011;1444;49.166;7.312;2023-06-14T11:38:13;8.00;;;6.90;;
2872;SDS011;1444;49.166;7.312;2023-06-14T11:40:39;29.90;;;10.50;;
2872;SDS011;1444;49.166;7.312;2023-06-14T11:43:06;12.13;;;7.63;;
2872;SDS011;1444;49.166;7.312;2023-06-14T11:45:33;13.43;;;9.77;;
2872;SDS011;1444;49.166;7.312;2023-06-14T11:48:00;15.50;;;7.77;;
2872;SDS011;1444;49.166;7.312;2023-06-14T11:50:27;14.57;;;10.10;;
2872;SDS011;1444;49.166;7.312;2023-06-14T11:52:54;14.37;;;9.67;;
2872;SDS011;1444;49.166;7.312;2023-06-14T11:55:23;26.20;;;8.87;;
2872;SDS011;1444;49.166;7.312;2023-06-14T11:57:50;22.73;;;10.77;;
2872;SDS011;1444;49.166;7.312;2023-06-14T12:00:22;27.60;;;10.60;;
2872;SDS011;1444;49.166;7.312;2023-06-14T12:02:52;13.33;;;8.40;;
2872;SDS011;1444;49.166;7.312;2023-06-14T12:05:21;21.70;;;11.27;;
2872;SDS011;1444;49.166;7.312;2023-06-14T12:07:49;11.83;;;7.67;;
2872;SDS011;1444;49.166;7.312;2023-06-14T12:10:18;17.23;;;9.20;;
2872;SDS011;1444;49.166;7.312;2023-06-14T12:12:47;12.17;;;8.67;;
2872;SDS011;1444;49.166;7.312;2023-06-14T12:15:14;9.27;;;6.73;;
2872;SDS011;1444;49.166;7.312;2023-06-14T12:17:42;9.83;;;8.30;;
2872;SDS011;1444;49.166;7.312;2023-06-14T12:20:11;12.20;;;6.60;;
2872;SDS011;1444;49.166;7.312;2023-06-14T12:22:46;13.17;;;7.97;;
2872;SDS011;1444;49.166;7.312;2023-06-14T12:25:23;26.23;;;9.40;;
2872;SDS011;1444;49.166;7.312;2023-06-14T12:27:54;14.70;;;8.60;;
2872;SDS011;1444;49.166;7.312;2023-06-14T12:30:21;11.20;;;7.17;;
2872;SDS011;1444;49.166;7.312;2023-06-14T12:32:48;17.17;;;9.20;;
2872;SDS011;1444;49.166;7.312;2023-06-14T12:35:16;15.37;;;7.13;;
2872;SDS011;1444;49.166;7.312;2023-06-14T12:37:43;13.80;;;9.30;;
2872;SDS011;1444;49.166;7.312;2023-06-14T12:40:11;6.50;;;5.27;;
2872;SDS011;1444;49.166;7.312;2023-06-14T12:42:39;11.20;;;7.43;;
2872;SDS011;1444;49.166;7.312;2023-06-14T12:45:08;12.27;;;7.10;;
2872;SDS011;1444;49.166;7.312;2023-06-14T12:47:36;14.13;;;9.03;;
2872;SDS011;1444;49.166;7.312;2023-06-14T12:50:03;15.20;;;6.93;;
2872;SDS011;1444;49.166;7.312;2023-06-14T12:52:30;22.17;;;9.60;;
2872;SDS011;1444;49.166;7.312;2023-06-14T12:55:00;11.93;;;8.27;;
2872;SDS011;1444;49.166;7.312;2023-06-14T12:57:28;11.33;;;5.40;;
2872;SDS011;1444;49.166;7.312;2023-06-14T12:59:54;12.40;;;7.73;;
2872;SDS011;1444;49.166;7.312;2023-06-14T13:02:22;17.37;;;8.40;;
2872;SDS011;1444;49.166;7.312;2023-06-14T13:04:50;21.10;;;7.70;;
2872;SDS011;1444;49.166;7.312;2023-06-14T13:07:17;12.93;;;7.93;;
2872;SDS011;1444;49.166;7.312;2023-06-14T13:09:44;17.07;;;8.90;;
2872;SDS011;1444;49.166;7.312;2023-06-14T13:12:11;10.83;;;5.00;;
2872;SDS011;1444;49.166;7.312;2023-06-14T13:14:38;16.70;;;6.13;;
2872;SDS011;1444;49.166;7.312;2023-06-14T13:17:05;6.40;;;5.67;;
2872;SDS011;1444;49.166;7.312;2023-06-14T13:19:35;10.00;;;4.70;;
2872;SDS011;1444;49.166;7.312;2023-06-14T13:22:02;9.50;;;5.77;;
2872;SDS011;1444;49.166;7.312;2023-06-14T13:24:29;8.53;;;6.53;;
2872;SDS011;1444;49.166;7.312;2023-06-14T13:26:56;6.80;;;5.70;;
2872;SDS011;1444;49.166;7.312;2023-06-14T13:29:23;15.40;;;9.47;;
2872;SDS011;1444;49.166;7.312;2023-06-14T13:31:51;13.17;;;8.10;;
2872;SDS011;1444;49.166;7.312;2023-06-14T13:34:18;8.60;;;5.30;;
2872;SDS011;1444;49.166;7.312;2023-06-14T13:36:47;8.17;;;5.23;;
2872;SDS011;1444;49.166;7.312;2023-06-14T13:39:14;6.17;;;4.70;;
2872;SDS011;1444;49.166;7.312;2023-06-14T13:41:41;5.50;;;4.67;;
2872;SDS011;1444;49.166;7.312;2023-06-14T13:44:08;6.80;;;4.23;;
2872;SDS011;1444;49.166;7.312;2023-06-14T13:46:36;6.43;;;4.67;;
2872;SDS011;1444;49.166;7.312;2023-06-14T13:49:03;6.30;;;4.30;;
2872;SDS011;1444;49.166;7.312;2023-06-14T13:51:30;6.37;;;3.33;;
2872;SDS011;1444;49.166;7.312;2023-06-14T13:53:58;5.60;;;5.03;;
2872;SDS011;1444;49.166;7.312;2023-06-14T13:56:26;9.77;;;5.83;;
2872;SDS011;1444;49.166;7.312;2023-06-14T13:58:53;6.03;;;4.07;;
2872;SDS011;1444;49.166;7.312;2023-06-14T14:01:19;11.53;;;3.43;;
2872;SDS011;1444;49.166;7.312;2023-06-14T14:03:47;8.90;;;3.70;;
2872;SDS011;1444;49.166;7.312;2023-06-14T14:06:15;4.87;;;3.80;;
2872;SDS011;1444;49.166;7.312;2023-06-14T14:08:42;3.70;;;3.40;;
2872;SDS011;1444;49.166;7.312;2023-06-14T14:11:11;3.70;;;3.00;;
2872;SDS011;1444;49.166;7.312;2023-06-14T14:13:38;3.80;;;3.50;;
2872;SDS011;1444;49.166;7.312;2023-06-14T14:16:06;8.27;;;4.40;;
2872;SDS011;1444;49.166;7.312;2023-06-14T14:18:33;4.70;;;4.20;;
2872;SDS011;1444;49.166;7.312;2023-06-14T14:21:00;5.17;;;4.20;;
2872;SDS011;1444;49.166;7.312;2023-06-14T14:23:27;7.00;;;4.03;;
2872;SDS011;1444;49.166;7.312;2023-06-14T14:25:53;4.27;;;2.87;;
2872;SDS011;1444;49.166;7.312;2023-06-14T14:28:22;5.23;;;3.10;;
2872;SDS011;1444;49.166;7.312;2023-06-14T14:30:49;17.97;;;4.00;;
2872;SDS011;1444;49.166;7.312;2023-06-14T14:33:16;4.03;;;3.63;;
2872;SDS011;1444;49.166;7.312;2023-06-14T14:35:43;3.50;;;3.20;;
2872;SDS011;1444;49.166;7.312;2023-06-14T14:38:11;7.10;;;3.37;;
2872;SDS011;1444;49.166;7.312;2023-06-14T14:40:38;3.37;;;2.97;;
2872;SDS011;1444;49.166;7.312;2023-06-14T14:43:05;4.60;;;3.87;;
2872;SDS011;1444;49.166;7.312;2023-06-14T14:45:33;13.13;;;3.93;;
2872;SDS011;1444;49.166;7.312;2023-06-14T14:48:00;3.20;;;2.90;;
2872;SDS011;1444;49.166;7.312;2023-06-14T14:50:28;5.20;;;3.80;;
2872;SDS011;1444;49.166;7.312;2023-06-14T14:52:55;5.90;;;3.10;;
2872;SDS011;1444;49.166;7.312;2023-06-14T14:55:22;3.60;;;3.30;;
2872;SDS011;1444;49.166;7.312;2023-06-14T14:57:49;3.53;;;3.23;;
2872;SDS011;1444;49.166;7.312;2023-06-14T15:00:16;6.97;;;3.60;;
2872;SDS011;1444;49.166;7.312;2023-06-14T15:02:45;6.93;;;3.37;;
2872;SDS011;1444;49.166;7.312;2023-06-14T15:05:12;4.33;;;3.37;;
2872;SDS011;1444;49.166;7.312;2023-06-14T15:07:39;7.40;;;3.37;;